Time;durP1;ratioP1;P1;durP2;ratioP2;P2;SDS_P1;SDS_P2;PMS_P1;PMS_P2;Temp;Humidity;BMP_temperature;BMP_pressure;BME280_temperature;BME280_humidity;BME280_pressure;Samples;Min_cycle;Max_cycle;Signal;HPM_P1;HPM_P2
2023/05/27 00:00:11;;;;;;;20.90;5.33;;;11.50;99.90;;;;;;5036447;28;20515;-71
2023/05/27 00:02:38;;;;;;;15.50;5.67;;;11.50;99.90;;;;;;5030694;28;21012;-71
2023/05/27 00:05:06;;;;;;;16.13;5.50;;;11.40;99.90;;;;;;5030859;28;20469;-71
2023/05/27 00:07:33;;;;;;;30.23;5.43;;;11.40;99.90;;;;;;5030709;28;20456;-71
2023/05/27 00:10:00;;;;;;;18.20;6.13;;;11.40;99.90;;;;;;5033280;28;20511;-71
2023/05/27 00:12:26;;;;;;;19.23;5.97;;;11.40;99.90;;;;;;5039191;28;20474;-71
2023/05/27 00:14:53;;;;;;;9.30;4.37;;;11.40;99.90;;;;;;5038487;28;20458;-71
2023/05/27 00:17:20;;;;;;;22.20;5.47;;;11.30;99.90;;;;;;5030703;28;20493;-71
2023/05/27 00:19:48;;;;;;;12.90;4.60;;;11.30;99.90;;;;;;5030258;28;20465;-71
2023/05/27 00:22:16;;;;;;;13.83;4.80;;;11.30;99.90;;;;;;5037433;28;20481;-71
2023/05/27 00:24:43;;;;;;;18.07;4.70;;;11.20;99.90;;;;;;5032594;28;20499;-71
2023/05/27 00:27:10;;;;;;;14.83;4.60;;;11.20;99.90;;;;;;5044090;28;20484;-71
2023/05/27 00:29:37;;;;;;;11.90;5.33;;;11.20;99.90;;;;;;5035849;28;20510;-71
2023/05/27 00:32:04;;;;;;;21.37;5.80;;;11.20;99.90;;;;;;5030212;28;20481;-71
2023/05/27 00:34:31;;;;;;;18.67;6.07;;;11.20;99.90;;;;;;5030217;28;20449;-71
2023/05/27 00:36:58;;;;;;;15.67;4.70;;;11.10;99.90;;;;;;5030293;28;20539;-71
2023/05/27 00:39:26;;;;;;;19.60;6.00;;;11.10;99.90;;;;;;5030362;28;20503;-71
2023/05/27 00:41:53;;;;;;;19.70;6.30;;;11.10;99.90;;;;;;5030529;28;20939;-71
2023/05/27 00:44:19;;;;;;;9.17;5.17;;;11.10;99.90;;;;;;5033663;28;20475;-71
2023/05/27 00:46:48;;;;;;;17.73;5.03;;;11.00;99.90;;;;;;5032978;28;20446;-71
2023/05/27 00:49:15;;;;;;;18.50;4.53;;;11.00;99.90;;;;;;5034313;28;20456;-71
2023/05/27 00:51:42;;;;;;;15.17;5.10;;;11.00;99.90;;;;;;5032574;28;20543;-71
2023/05/27 00:54:10;;;;;;;19.10;5.73;;;10.90;99.90;;;;;;5030750;28;20461;-71
2023/05/27 00:56:38;;;;;;;19.47;6.40;;;10.90;99.90;;;;;;5032381;28;20493;-71
2023/05/27 00:59:05;;;;;;;12.23;4.90;;;10.90;99.90;;;;;;5035256;28;20464;-71
2023/05/27 01:01:33;;;;;;;15.57;6.00;;;10.80;99.90;;;;;;5039107;28;20477;-71
2023/05/27 01:04:01;;;;;;;20.80;6.30;;;10.80;99.90;;;;;;5035612;28;20450;-71
2023/05/27 01:06:40;;;;;;;13.27;5.07;;;10.70;99.90;;;;;;5030813;28;20520;-71
2023/05/27 01:09:17;;;;;;;14.00;5.53;;;10.60;99.90;;;;;;5030074;28;20453;-71
2023/05/27 01:11:51;;;;;;;27.33;5.57;;;10.60;99.90;;;;;;5037728;28;20480;-71
2023/05/27 01:14:21;;;;;;;20.33;6.27;;;10.50;99.90;;;;;;5034976;28;20519;-71
2023/05/27 01:16:48;;;;;;;12.30;6.10;;;10.50;99.90;;;;;;5039843;28;20907;-71
2023/05/27 01:19:19;;;;;;;16.10;6.33;;;10.40;99.90;;;;;;5036432;28;20541;-71
2023/05/27 01:21:50;;;;;;;18.73;5.53;;;10.40;99.90;;;;;;5030836;28;20523;-71
2023/05/27 01:24:18;;;;;;;22.23;6.70;;;10.30;99.90;;;;;;5039602;28;20462;-71
2023/05/27 01:26:45;;;;;;;20.50;6.50;;;10.30;99.90;;;;;;5031877;28;20977;-71
2023/05/27 01:29:12;;;;;;;20.80;5.50;;;10.30;99.90;;;;;;5038587;28;20457;-71
2023/05/27 01:31:46;;;;;;;21.90;6.00;;;10.30;99.90;;;;;;5031481;28;20473;-71
2023/05/27 01:34:19;;;;;;;17.23;5.90;;;10.30;99.90;;;;;;5029947;28;20992;-71
2023/05/27 01:36:50;;;;;;;16.53;5.63;;;10.30;99.90;;;;;;5032473;28;20840;-71
2023/05/27 01:39:19;;;;;;;20.77;6.13;;;10.20;99.90;;;;;;5029466;28;20516;-71
2023/05/27 01:41:47;;;;;;;19.73;5.40;;;10.20;99.90;;;;;;5031924;28;20469;-71
2023/05/27 01:44:17;;;;;;;16.57;5.47;;;10.20;99.90;;;;;;5036763;28;20941;-71
2023/05/27 01:46:43;;;;;;;21.70;6.10;;;10.10;99.90;;;;;;5042778;28;20459;-71
2023/05/27 01:49:10;;;;;;;16.60;5.90;;;10.10;99.90;;;;;;5037425;28;20499;-71
2023/05/27 01:51:37;;;;;;;11.80;5.00;;;10.10;99.90;;;;;;5034108;28;20942;-71
2023/05/27 01:54:04;;;;;;;15.23;5.80;;;10.00;99.90;;;;;;5042764;28;20507;-71
2023/05/27 01:56:32;;;;;;;18.07;5.50;;;10.00;99.90;;;;;;5043581;28;20504;-71
2023/05/27 01:58:58;;;;;;;18.20;6.30;;;9.90;99.90;;;;;;5032725;28;20938;-71
2023/05/27 02:01:25;;;;;;;16.13;6.10;;;9.90;99.90;;;;;;5033447;28;20477;-71
2023/05/27 02:03:51;;;;;;;16.77;5.80;;;9.90;99.90;;;;;;5032880;28;20454;-71
2023/05/27 02:06:19;;;;;;;16.90;6.10;;;9.80;99.90;;;;;;5032788;28;20450;-71
2023/05/27 02:08:46;;;;;;;25.10;6.37;;;9.80;99.90;;;;;;5037898;28;20818;-71
2023/05/27 02:11:13;;;;;;;17.13;6.00;;;9.70;99.90;;;;;;5042063;28;21015;-71
2023/05/27 02:13:42;;;;;;;16.50;6.00;;;9.70;99.90;;;;;;5047483;28;20470;-71
2023/05/27 02:16:09;;;;;;;15.63;6.10;;;9.70;99.90;;;;;;5032882;28;20458;-71
2023/05/27 02:18:36;;;;;;;17.50;6.17;;;9.70;99.90;;;;;;5040514;28;20487;-71
2023/05/27 02:21:05;;;;;;;20.07;6.40;;;9.60;99.90;;;;;;5039478;28;20513;-71
2023/05/27 02:23:32;;;;;;;14.97;7.00;;;9.60;99.90;;;;;;5037503;28;20454;-71
2023/05/27 02:26:00;;;;;;;34.43;7.40;;;9.60;99.90;;;;;;5040543;28;20462;-71
2023/05/27 02:28:27;;;;;;;11.10;5.33;;;9.50;99.90;;;;;;5032608;28;20473;-71
2023/05/27 02:30:55;;;;;;;20.20;6.30;;;9.50;99.90;;;;;;5042390;28;20458;-71
2023/05/27 02:33:21;;;;;;;20.80;6.43;;;9.50;99.90;;;;;;5040933;28;20590;-71
2023/05/27 02:35:48;;;;;;;23.17;7.43;;;9.40;99.90;;;;;;5040548;28;20516;-71
2023/05/27 02:38:15;;;;;;;18.80;6.43;;;9.40;99.90;;;;;;5032223;28;20486;-71
2023/05/27 02:40:41;;;;;;;19.33;6.47;;;9.40;99.90;;;;;;5032903;28;21008;-71
2023/05/27 02:43:09;;;;;;;21.50;7.77;;;9.40;99.90;;;;;;5040287;28;20508;-70
2023/05/27 02:45:35;;;;;;;21.80;6.90;;;9.30;99.90;;;;;;5032214;28;20450;-71
2023/05/27 02:48:03;;;;;;;19.73;6.57;;;9.30;99.90;;;;;;5036665;28;20477;-71
2023/05/27 02:50:30;;;;;;;16.37;6.53;;;9.30;99.90;;;;;;5032041;28;20512;-71
2023/05/27 02:52:57;;;;;;;22.50;7.50;;;9.30;99.90;;;;;;5031966;28;20528;-71
2023/05/27 02:55:23;;;;;;;23.87;6.80;;;9.30;99.90;;;;;;5034467;28;20490;-71
2023/05/27 02:57:50;;;;;;;25.90;7.67;;;9.30;99.90;;;;;;5039769;28;20898;-71
2023/05/27 03:00:17;;;;;;;13.50;6.60;;;9.20;99.90;;;;;;5033022;28;20492;-71
2023/05/27 03:02:44;;;;;;;18.90;7.40;;;9.20;99.90;;;;;;5032856;28;20811;-71
2023/05/27 03:05:12;;;;;;;20.43;6.73;;;9.20;99.90;;;;;;5037049;28;20457;-71
2023/05/27 03:07:40;;;;;;;20.13;7.47;;;9.10;99.90;;;;;;5034453;28;20458;-71
2023/05/27 03:10:08;;;;;;;17.20;6.23;;;9.10;99.90;;;;;;5031756;28;20453;-71
2023/05/27 03:12:34;;;;;;;13.33;5.90;;;9.10;99.90;;;;;;5039644;28;20503;-71
2023/05/27 03:15:01;;;;;;;23.53;7.30;;;9.10;99.90;;;;;;5036952;28;21044;-71
2023/05/27 03:17:28;;;;;;;21.10;6.70;;;9.10;99.90;;;;;;5039759;28;20490;-71
2023/05/27 03:19:54;;;;;;;16.47;6.40;;;9.10;99.90;;;;;;5031557;28;20508;-71
2023/05/27 03:22:22;;;;;;;21.53;6.33;;;9.10;99.90;;;;;;5035175;28;20536;-71
2023/05/27 03:24:49;;;;;;;21.47;7.83;;;9.10;99.90;;;;;;5040330;28;20583;-70
2023/05/27 03:27:16;;;;;;;17.87;6.87;;;9.10;99.90;;;;;;5037760;28;20930;-71
2023/05/27 03:29:42;;;;;;;18.37;6.93;;;9.00;99.90;;;;;;5039635;28;20500;-71
2023/05/27 03:32:09;;;;;;;22.23;7.50;;;9.00;99.90;;;;;;5037290;28;20823;-71
2023/05/27 03:34:36;;;;;;;14.27;7.60;;;9.00;99.90;;;;;;5031171;28;20457;-71
2023/05/27 03:37:02;;;;;;;15.77;6.90;;;8.90;99.90;;;;;;5031498;28;20508;-71
2023/05/27 03:39:30;;;;;;;21.20;7.73;;;8.90;99.90;;;;;;5031387;28;20458;-71
2023/05/27 03:41:57;;;;;;;26.13;7.53;;;8.90;99.90;;;;;;5035629;28;20536;-72
2023/05/27 03:44:24;;;;;;;15.03;6.10;;;8.80;99.90;;;;;;5031389;28;20446;-71
2023/05/27 03:46:51;;;;;;;23.90;7.87;;;8.80;99.90;;;;;;5047228;28;20507;-71
2023/05/27 03:49:17;;;;;;;24.30;7.27;;;8.80;99.90;;;;;;5035435;28;20859;-71
2023/05/27 03:51:44;;;;;;;18.57;7.50;;;8.80;99.90;;;;;;5030528;28;20478;-71
2023/05/27 03:54:11;;;;;;;17.73;7.43;;;8.80;99.90;;;;;;5031257;28;20473;-70
2023/05/27 03:56:39;;;;;;;21.87;7.10;;;8.80;99.90;;;;;;5031009;28;20449;-71
2023/05/27 03:59:06;;;;;;;17.03;7.07;;;8.80;99.90;;;;;;5040234;28;20956;-71
2023/05/27 04:01:32;;;;;;;20.97;7.20;;;8.80;99.90;;;;;;5034118;28;20474;-71
2023/05/27 04:03:59;;;;;;;22.43;7.40;;;8.80;99.90;;;;;;5042432;28;20453;-71
2023/05/27 04:06:26;;;;;;;30.67;7.40;;;8.80;99.90;;;;;;5041990;28;20458;-71
2023/05/27 04:08:53;;;;;;;17.63;7.50;;;8.80;99.90;;;;;;5030457;28;20819;-71
2023/05/27 04:11:20;;;;;;;21.87;7.00;;;8.80;99.90;;;;;;5033369;28;20567;-71
2023/05/27 04:13:48;;;;;;;16.90;8.10;;;8.80;99.90;;;;;;5036969;28;20481;-71
2023/05/27 04:16:16;;;;;;;28.50;6.90;;;8.80;99.90;;;;;;5032770;28;20460;-71
2023/05/27 04:18:48;;;;;;;30.57;7.93;;;8.80;99.90;;;;;;5033748;28;20477;-71
2023/05/27 04:21:15;;;;;;;18.80;7.50;;;8.90;99.90;;;;;;5044409;28;20477;-72
2023/05/27 04:23:41;;;;;;;15.93;7.30;;;8.90;99.90;;;;;;5035893;28;20453;-71
2023/05/27 04:26:08;;;;;;;24.17;7.40;;;8.90;99.90;;;;;;5037215;28;20815;-71
2023/05/27 04:28:35;;;;;;;24.27;7.27;;;8.90;99.90;;;;;;5030318;28;20588;-71
2023/05/27 04:31:03;;;;;;;23.97;7.97;;;8.90;99.90;;;;;;5035837;28;20469;-71
2023/05/27 04:33:29;;;;;;;22.73;7.40;;;9.00;99.90;;;;;;5034058;28;20503;-71
2023/05/27 04:35:56;;;;;;;30.80;8.83;;;9.00;99.90;;;;;;5033223;28;20454;-71
2023/05/27 04:38:23;;;;;;;29.00;8.10;;;9.10;99.90;;;;;;5030150;28;21311;-71
2023/05/27 04:40:52;;;;;;;35.07;9.20;;;9.10;99.90;;;;;;5032696;28;20458;-71
2023/05/27 04:43:19;;;;;;;24.03;7.17;;;9.20;99.90;;;;;;5043427;28;20925;-71
2023/05/27 04:45:45;;;;;;;27.03;8.10;;;9.20;99.90;;;;;;5030374;28;20446;-71
2023/05/27 04:48:13;;;;;;;26.10;8.10;;;9.30;99.90;;;;;;5034502;28;20927;-70
2023/05/27 04:50:40;;;;;;;22.50;8.00;;;9.30;99.90;;;;;;5033905;28;20511;-70
2023/05/27 04:53:07;;;;;;;15.97;7.07;;;9.40;99.90;;;;;;5032539;28;20465;-70
2023/05/27 04:55:35;;;;;;;28.03;8.43;;;9.50;99.90;;;;;;5041132;28;20825;-71
2023/05/27 04:58:03;;;;;;;23.33;8.07;;;9.60;99.90;;;;;;5029911;28;20490;-70
2023/05/27 05:00:38;;;;;;;24.27;7.93;;;9.70;99.90;;;;;;5038155;28;20453;-71
2023/05/27 05:03:07;;;;;;;22.73;8.33;;;9.80;99.90;;;;;;5042620;28;20455;-71
2023/05/27 05:05:35;;;;;;;24.47;7.80;;;9.90;99.90;;;;;;5037538;28;20864;-71
2023/05/27 05:08:02;;;;;;;24.17;7.20;;;10.00;99.90;;;;;;5030270;28;20469;-71
2023/05/27 05:10:29;;;;;;;31.70;8.17;;;10.10;99.90;;;;;;5029695;28;20441;-71
2023/05/27 05:12:57;;;;;;;30.20;8.10;;;10.20;99.90;;;;;;5031158;28;20985;-71
2023/05/27 05:15:24;;;;;;;24.20;7.73;;;10.20;99.90;;;;;;5035494;28;20458;-71
2023/05/27 05:17:51;;;;;;;15.20;6.37;;;10.40;99.90;;;;;;5032296;28;20490;-71
2023/05/27 05:20:18;;;;;;;20.63;7.57;;;10.40;99.90;;;;;;5036794;28;20450;-71
2023/05/27 05:22:45;;;;;;;19.40;6.77;;;10.60;99.90;;;;;;5035132;28;20477;-71
2023/05/27 05:25:12;;;;;;;16.30;7.03;;;10.60;99.90;;;;;;5033738;28;20458;-71
2023/05/27 05:27:39;;;;;;;23.50;7.80;;;10.70;99.90;;;;;;5033768;28;20508;-71
2023/05/27 05:30:07;;;;;;;22.40;7.20;;;10.80;99.90;;;;;;5043355;28;20454;-71
2023/05/27 05:32:34;;;;;;;24.37;8.00;;;10.90;99.90;;;;;;5033022;28;21048;-71
2023/05/27 05:35:01;;;;;;;30.20;7.10;;;10.90;99.90;;;;;;5040685;28;20508;-71
2023/05/27 05:37:27;;;;;;;22.57;6.90;;;11.00;99.90;;;;;;5037509;28;20973;-70
2023/05/27 05:39:56;;;;;;;22.50;7.70;;;11.10;99.90;;;;;;5037597;28;20486;-71
2023/05/27 05:42:24;;;;;;;22.27;7.50;;;11.20;99.90;;;;;;5044408;28;20464;-71
2023/05/27 05:44:51;;;;;;;20.60;8.13;;;11.30;99.90;;;;;;5033970;28;20462;-71
2023/05/27 05:47:18;;;;;;;20.73;7.07;;;11.40;99.90;;;;;;5036286;28;20501;-71
2023/05/27 05:49:45;;;;;;;22.53;8.37;;;11.60;99.90;;;;;;5041297;28;20511;-71
2023/05/27 05:52:11;;;;;;;21.33;7.17;;;11.70;99.90;;;;;;5039338;28;20470;-70
2023/05/27 05:54:38;;;;;;;17.57;6.57;;;11.90;99.90;;;;;;5041584;28;20457;-71
2023/05/27 05:57:06;;;;;;;21.77;7.10;;;12.00;99.90;;;;;;5038306;28;20454;-70
2023/05/27 05:59:33;;;;;;;21.50;7.20;;;12.20;99.90;;;;;;5044446;28;20550;-70
2023/05/27 06:01:59;;;;;;;17.20;7.10;;;12.30;99.90;;;;;;5033184;28;20473;-71
2023/05/27 06:04:26;;;;;;;31.13;7.90;;;12.40;99.90;;;;;;5036051;28;20454;-71
2023/05/27 06:06:53;;;;;;;20.20;7.27;;;12.60;99.90;;;;;;5033088;28;20454;-71
2023/05/27 06:09:19;;;;;;;19.90;7.63;;;12.80;99.90;;;;;;5032608;28;20938;-70
2023/05/27 06:11:46;;;;;;;22.70;7.00;;;12.90;99.90;;;;;;5040786;28;20522;-70
2023/05/27 06:14:14;;;;;;;29.50;8.40;;;13.00;99.90;;;;;;5043127;28;20449;-70
2023/05/27 06:16:41;;;;;;;19.20;6.83;;;13.20;99.90;;;;;;5039981;28;20461;-70
2023/05/27 06:19:07;;;;;;;16.27;6.80;;;13.40;99.90;;;;;;5030983;28;20482;-71
2023/05/27 06:21:34;;;;;;;15.17;6.77;;;13.50;99.90;;;;;;5039404;28;20479;-71
2023/05/27 06:24:01;;;;;;;17.87;6.17;;;13.70;99.90;;;;;;5032792;28;20523;-71
2023/05/27 06:26:28;;;;;;;22.77;7.20;;;13.90;99.90;;;;;;5042500;28;20873;-71
2023/05/27 06:28:54;;;;;;;15.60;5.93;;;14.00;99.90;;;;;;5031988;28;20450;-71
2023/05/27 06:31:22;;;;;;;14.10;6.37;;;14.30;99.90;;;;;;5036294;28;20478;-71
2023/05/27 06:33:49;;;;;;;16.07;6.13;;;14.40;99.90;;;;;;5032249;28;20449;-72
2023/05/27 06:36:16;;;;;;;19.87;6.80;;;14.60;99.90;;;;;;5045967;28;20456;-70
2023/05/27 06:38:42;;;;;;;16.23;7.10;;;14.70;99.90;;;;;;5033870;28;20521;-71
2023/05/27 06:41:09;;;;;;;22.03;7.20;;;14.90;99.90;;;;;;5032098;28;21063;-71
2023/05/27 06:43:36;;;;;;;19.27;6.43;;;15.10;99.90;;;;;;5031157;28;20960;-72
2023/05/27 06:46:02;;;;;;;23.17;7.53;;;15.30;99.90;;;;;;5032438;28;20202;-70
2023/05/27 06:48:30;;;;;;;21.37;6.80;;;15.50;99.90;;;;;;5036579;28;20511;-71
2023/05/27 06:50:57;;;;;;;23.23;7.63;;;15.70;99.90;;;;;;5032341;28;20458;-71
2023/05/27 06:53:24;;;;;;;18.67;6.73;;;16.00;99.90;;;;;;5032247;28;20499;-70
2023/05/27 06:55:50;;;;;;;13.73;6.03;;;16.00;99.90;;;;;;5034280;28;20492;-71
2023/05/27 06:58:17;;;;;;;22.10;6.63;;;16.10;99.90;;;;;;5040333;28;20461;-71
2023/05/27 07:00:44;;;;;;;20.90;6.70;;;16.20;99.90;;;;;;5038099;28;20933;-71
2023/05/27 07:03:10;;;;;;;16.83;6.30;;;16.30;99.90;;;;;;5041511;28;20428;-70
2023/05/27 07:05:38;;;;;;;22.20;6.70;;;16.50;99.90;;;;;;5040338;28;20878;-70
2023/05/27 07:08:06;;;;;;;21.43;5.70;;;16.70;99.90;;;;;;5036725;28;20490;-70
2023/05/27 07:10:33;;;;;;;21.93;6.53;;;16.90;99.90;;;;;;5031302;28;20453;-70
2023/05/27 07:13:00;;;;;;;14.67;5.90;;;16.90;99.90;;;;;;5036825;28;20474;-70
2023/05/27 07:15:27;;;;;;;14.50;5.70;;;17.00;99.90;;;;;;5041731;28;20460;-71
2023/05/27 07:17:54;;;;;;;19.30;7.03;;;17.20;99.90;;;;;;5031594;28;20420;-70
2023/05/27 07:20:21;;;;;;;20.30;6.57;;;17.30;99.90;;;;;;5031352;28;20576;-70
2023/05/27 07:22:49;;;;;;;17.60;7.07;;;17.30;99.90;;;;;;5036777;28;20474;-71
2023/05/27 07:25:16;;;;;;;20.23;6.77;;;17.50;99.90;;;;;;5031489;28;20508;-69
2023/05/27 07:27:42;;;;;;;15.30;5.97;;;17.60;99.90;;;;;;5039800;28;20445;-71
2023/05/27 07:30:10;;;;;;;18.70;6.10;;;17.70;99.90;;;;;;5036926;28;20912;-71
2023/05/27 07:32:37;;;;;;;19.27;5.10;;;17.90;99.90;;;;;;5047106;28;20465;-74
2023/05/27 07:35:04;;;;;;;21.97;5.83;;;18.00;99.90;;;;;;5037808;28;20427;-75
2023/05/27 07:37:31;;;;;;;15.77;5.20;;;18.10;99.90;;;;;;5041474;28;20477;-73
2023/05/27 07:39:59;;;;;;;16.80;5.30;;;18.30;99.90;;;;;;5043754;28;20460;-72
2023/05/27 07:42:26;;;;;;;16.20;5.40;;;18.50;99.90;;;;;;5031062;28;20505;-72
2023/05/27 07:44:54;;;;;;;13.50;5.20;;;18.50;99.90;;;;;;5030907;28;20511;-73
2023/05/27 07:47:20;;;;;;;14.57;5.47;;;18.50;99.90;;;;;;5033057;28;20442;-74
2023/05/27 07:49:47;;;;;;;13.90;4.90;;;18.50;99.90;;;;;;5034014;28;20518;-70
2023/05/27 07:52:13;;;;;;;14.65;4.95;;;18.40;99.90;;;;;;5042902;28;20393;-72
2023/05/27 07:54:40;;;;;;;15.60;5.20;;;18.50;99.90;;;;;;5029026;28;20441;-69
2023/05/27 07:57:08;;;;;;;14.73;5.90;;;18.60;99.90;;;;;;5030726;28;20281;-69
2023/05/27 07:59:35;;;;;;;16.27;5.27;;;18.80;99.90;;;;;;5040871;28;20504;-69
2023/05/27 08:02:01;;;;;;;16.93;5.23;;;19.10;99.90;;;;;;5030664;28;20448;-69
2023/05/27 08:04:28;;;;;;;20.67;5.63;;;19.30;99.90;;;;;;5033195;28;20436;-68
2023/05/27 08:06:55;;;;;;;18.97;6.50;;;19.50;99.90;;;;;;5037617;28;20501;-69
2023/05/27 08:09:21;;;;;;;13.43;5.00;;;19.60;99.90;;;;;;5037964;28;20445;-72
2023/05/27 08:11:48;;;;;;;15.03;6.10;;;19.80;99.90;;;;;;5038455;28;20222;-73
2023/05/27 08:14:16;;;;;;;14.80;5.60;;;20.00;99.90;;;;;;5035951;28;20478;-72
2023/05/27 08:16:43;;;;;;;17.40;5.57;;;20.10;99.90;;;;;;5038326;28;20490;-73
2023/05/27 08:19:09;;;;;;;13.80;5.70;;;20.20;99.90;;;;;;5035607;28;20510;-72
2023/05/27 08:21:37;;;;;;;18.83;4.70;;;20.40;99.90;;;;;;5049082;28;20526;-72
2023/05/27 08:24:05;;;;;;;13.93;4.83;;;20.70;99.90;;;;;;5030957;28;20453;-70
2023/05/27 08:26:31;;;;;;;13.70;5.20;;;21.10;99.90;;;;;;5043218;28;20435;-72
2023/05/27 08:28:58;;;;;;;10.57;4.70;;;21.50;99.90;;;;;;5037058;28;20507;-70
2023/05/27 08:31:26;;;;;;;17.83;5.30;;;21.70;99.90;;;;;;5034165;28;20469;-71
2023/05/27 08:33:52;;;;;;;12.87;4.50;;;21.70;99.90;;;;;;5029990;28;20516;-73
2023/05/27 08:36:20;;;;;;;7.77;4.73;;;21.70;99.90;;;;;;5035936;28;20457;-74
2023/05/27 08:38:46;;;;;;;14.07;4.90;;;21.70;99.90;;;;;;5038136;28;20484;-74
2023/05/27 08:41:14;;;;;;;13.37;5.70;;;21.90;99.90;;;;;;5035017;28;20829;-74
2023/05/27 08:43:41;;;;;;;14.47;6.07;;;22.10;99.90;;;;;;5029233;28;20922;-74
2023/05/27 08:46:09;;;;;;;17.43;6.43;;;22.10;99.90;;;;;;5043336;28;20449;-74
2023/05/27 08:48:38;;;;;;;14.17;5.57;;;22.00;99.90;;;;;;5042228;28;20534;-74
2023/05/27 08:51:06;;;;;;;14.60;4.90;;;22.10;99.90;;;;;;5041907;28;20868;-74
2023/05/27 08:53:34;;;;;;;11.80;4.83;;;22.40;99.90;;;;;;5044645;28;20734;-75
2023/05/27 08:56:02;;;;;;;13.83;4.63;;;22.30;99.90;;;;;;5044217;28;20983;-75
2023/05/27 08:58:29;;;;;;;20.03;5.80;;;22.30;99.90;;;;;;5044750;28;20548;-75
2023/05/27 09:00:56;;;;;;;17.77;5.23;;;22.30;99.90;;;;;;5042699;28;20481;-74
2023/05/27 09:03:23;;;;;;;9.43;5.00;;;22.60;99.90;;;;;;5036893;28;20461;-74
2023/05/27 09:05:51;;;;;;;27.33;5.20;;;22.80;99.90;;;;;;5034211;28;20453;-74
2023/05/27 09:08:18;;;;;;;18.07;5.43;;;22.90;99.90;;;;;;5036046;28;20853;-74
2023/05/27 09:10:45;;;;;;;11.97;4.90;;;22.80;99.90;;;;;;5035878;28;20450;-74
2023/05/27 09:13:11;;;;;;;16.80;5.63;;;22.80;99.90;;;;;;5036544;28;20464;-72
2023/05/27 09:15:38;;;;;;;17.27;5.20;;;22.60;99.90;;;;;;5052573;28;20447;-72
2023/05/27 09:18:06;;;;;;;11.23;5.00;;;22.40;99.90;;;;;;5047390;28;20932;-73
2023/05/27 09:20:32;;;;;;;15.67;5.33;;;22.50;99.90;;;;;;5037395;28;20485;-73
2023/05/27 09:23:01;;;;;;;11.50;5.00;;;22.60;99.90;;;;;;5033517;28;20468;-72
2023/05/27 09:25:28;;;;;;;12.03;5.33;;;22.50;99.90;;;;;;5038612;28;20457;-73
2023/05/27 09:27:56;;;;;;;17.03;5.90;;;22.60;99.90;;;;;;5041001;28;20453;-72
2023/05/27 09:30:23;;;;;;;14.87;4.70;;;22.60;99.90;;;;;;5039663;28;20473;-73
2023/05/27 09:32:50;;;;;;;17.60;5.30;;;22.70;99.90;;;;;;5035664;28;20495;-73
2023/05/27 09:35:18;;;;;;;12.80;4.83;;;23.00;99.90;;;;;;5037861;28;20575;-72
2023/05/27 09:37:45;;;;;;;12.83;5.50;;;23.30;99.90;;;;;;5033674;28;20958;-73
2023/05/27 09:40:15;;;;;;;13.70;5.30;;;23.50;99.90;;;;;;5033485;28;20481;-73
2023/05/27 09:42:43;;;;;;;13.80;4.97;;;23.70;99.90;;;;;;5033477;28;20461;-73
2023/05/27 09:45:13;;;;;;;16.20;5.70;;;23.90;99.90;;;;;;5033624;28;20456;-73
2023/05/27 09:47:40;;;;;;;14.13;5.03;;;23.70;99.90;;;;;;5038416;28;20448;-73
2023/05/27 09:50:09;;;;;;;9.97;5.23;;;23.60;99.90;;;;;;5040261;28;20472;-73
2023/05/27 09:52:38;;;;;;;17.67;5.53;;;23.80;99.90;;;;;;5033188;28;20468;-72
2023/05/27 09:55:06;;;;;;;9.00;5.00;;;23.90;99.90;;;;;;5033248;28;20460;-73
2023/05/27 09:57:35;;;;;;;11.63;5.47;;;24.10;99.90;;;;;;5037913;28;20457;-72
2023/05/27 10:00:09;;;;;;;14.63;5.17;;;24.10;99.90;;;;;;5040392;28;20575;-73
2023/05/27 10:02:38;;;;;;;12.80;4.43;;;24.30;99.90;;;;;;5037463;28;20475;-73
2023/05/27 10:05:07;;;;;;;18.83;5.30;;;24.40;99.90;;;;;;5041466;28;20537;-72
2023/05/27 10:07:37;;;;;;;13.70;4.60;;;24.60;99.90;;;;;;5041177;28;20475;-72
2023/05/27 10:10:06;;;;;;;14.17;4.30;;;24.60;99.90;;;;;;5037057;28;20441;-72
2023/05/27 10:12:34;;;;;;;17.30;5.00;;;24.20;99.90;;;;;;5035872;28;20477;-73
2023/05/27 10:15:01;;;;;;;14.30;4.87;;;24.10;99.90;;;;;;5038235;28;20450;-73
2023/05/27 10:17:29;;;;;;;13.57;5.03;;;24.00;99.90;;;;;;5039975;28;20456;-73
2023/05/27 10:19:57;;;;;;;17.10;5.10;;;23.90;99.90;;;;;;5044358;28;21058;-73
2023/05/27 10:22:24;;;;;;;16.83;4.73;;;23.60;99.90;;;;;;5032684;28;20469;-73
2023/05/27 10:24:53;;;;;;;15.00;4.83;;;23.50;99.90;;;;;;5032545;28;20488;-73
2023/05/27 10:27:21;;;;;;;15.03;4.60;;;23.60;99.90;;;;;;5044994;28;20454;-73
2023/05/27 10:29:57;;;;;;;10.00;4.73;;;23.70;99.90;;;;;;5038725;28;20483;-73
2023/05/27 10:32:24;;;;;;;15.13;5.00;;;24.20;99.90;;;;;;5032681;28;20473;-73
2023/05/27 10:34:52;;;;;;;13.83;4.70;;;24.50;99.90;;;;;;5032429;28;20456;-73
2023/05/27 10:37:22;;;;;;;10.83;4.83;;;24.70;99.90;;;;;;5044261;28;20459;-73
2023/05/27 10:39:55;;;;;;;9.70;4.40;;;25.00;99.90;;;;;;5036457;28;20966;-73
2023/05/27 10:42:22;;;;;;;8.40;3.87;;;25.20;99.90;;;;;;5036721;28;20473;-74
2023/05/27 10:44:52;;;;;;;16.40;4.20;;;25.20;99.90;;;;;;5050440;28;20966;-72
2023/05/27 10:47:28;;;;;;;19.77;4.60;;;25.10;99.90;;;;;;5040610;28;20851;-73
2023/05/27 10:49:58;;;;;;;11.77;4.63;;;25.00;99.90;;;;;;5040373;28;20860;-73
2023/05/27 10:52:26;;;;;;;20.00;4.87;;;25.10;99.90;;;;;;5032445;28;20813;-73
2023/05/27 10:54:57;;;;;;;12.63;5.63;;;25.30;99.90;;;;;;5033517;28;20520;-73
2023/05/27 10:57:24;;;;;;;10.87;4.60;;;25.10;99.90;;;;;;5038283;28;20516;-73
2023/05/27 10:59:53;;;;;;;15.33;4.67;;;25.00;99.90;;;;;;5037011;28;20493;-74
2023/05/27 11:02:20;;;;;;;12.80;4.60;;;25.10;99.40;;;;;;5038036;28;20894;-73
2023/05/27 11:04:48;;;;;;;11.03;4.13;;;25.40;99.70;;;;;;5034773;28;20465;-73
2023/05/27 11:07:18;;;;;;;8.67;4.23;;;25.80;99.00;;;;;;5043759;28;20456;-73
2023/05/27 11:09:46;;;;;;;12.33;4.03;;;25.80;98.30;;;;;;5049401;28;20456;-73
2023/05/27 11:12:16;;;;;;;7.33;4.13;;;25.90;99.60;;;;;;5040819;28;20480;-74
2023/05/27 11:14:42;;;;;;;7.57;4.17;;;26.10;99.70;;;;;;5039004;28;20803;-73
2023/05/27 11:17:12;;;;;;;14.07;5.17;;;26.20;99.60;;;;;;5035887;28;20453;-74
2023/05/27 11:19:39;;;;;;;12.03;4.50;;;25.80;97.50;;;;;;5031323;28;20511;-71
2023/05/27 11:22:08;;;;;;;11.53;4.50;;;25.80;98.40;;;;;;5031596;28;20462;-73
2023/05/27 11:24:36;;;;;;;11.90;4.20;;;25.90;98.10;;;;;;5039497;28;20951;-74
2023/05/27 11:27:10;;;;;;;12.73;4.10;;;26.20;98.60;;;;;;5040542;28;20458;-73
2023/05/27 11:29:36;;;;;;;9.43;4.23;;;26.50;98.80;;;;;;5038311;28;20476;-73
2023/05/27 11:32:03;;;;;;;6.50;3.93;;;27.00;99.20;;;;;;5031292;28;21026;-73
2023/05/27 11:34:34;;;;;;;9.00;4.30;;;26.70;96.10;;;;;;5031538;28;20462;-73
2023/05/27 11:37:03;;;;;;;10.67;4.60;;;26.50;96.50;;;;;;5031687;28;20441;-73
2023/05/27 11:39:31;;;;;;;11.33;4.47;;;26.80;99.80;;;;;;5031788;28;20499;-73
2023/05/27 11:41:57;;;;;;;8.43;4.10;;;27.10;97.40;;;;;;5032691;28;20485;-73
2023/05/27 11:44:26;;;;;;;13.37;4.67;;;27.10;96.90;;;;;;5038374;28;20452;-73
2023/05/27 11:47:00;;;;;;;8.47;4.30;;;27.00;96.40;;;;;;5038003;28;20453;-72
2023/05/27 11:49:28;;;;;;;12.07;4.30;;;26.90;94.90;;;;;;5038753;28;20455;-73
2023/05/27 11:51:58;;;;;;;11.20;4.70;;;26.40;95.40;;;;;;5031623;28;20469;-73
2023/05/27 11:54:25;;;;;;;18.77;4.50;;;26.20;95.40;;;;;;5032449;28;20453;-73
2023/05/27 11:56:53;;;;;;;10.53;4.20;;;26.40;97.30;;;;;;5046621;28;20680;-74
2023/05/27 11:59:21;;;;;;;12.10;4.50;;;26.70;95.50;;;;;;5030780;28;20831;-72
2023/05/27 12:01:49;;;;;;;12.40;4.07;;;26.40;97.30;;;;;;5030869;28;20493;-73
2023/05/27 12:04:16;;;;;;;14.33;4.20;;;26.70;98.20;;;;;;5039453;28;20888;-73
2023/05/27 12:06:45;;;;;;;8.47;4.00;;;27.00;96.00;;;;;;5032601;28;20458;-74
2023/05/27 12:09:13;;;;;;;16.30;4.37;;;27.00;96.10;;;;;;5037286;28;20830;-74
2023/05/27 12:11:40;;;;;;;9.57;4.13;;;27.00;97.30;;;;;;5030743;28;20527;-73
2023/05/27 12:14:07;;;;;;;12.97;4.70;;;27.40;97.40;;;;;;5040440;28;20452;-74
2023/05/27 12:16:34;;;;;;;16.00;4.80;;;27.60;96.80;;;;;;5038512;28;20452;-74
2023/05/27 12:19:01;;;;;;;13.70;5.10;;;27.50;94.10;;;;;;5038713;28;20942;-74
2023/05/27 12:21:28;;;;;;;9.23;4.47;;;27.50;95.50;;;;;;5030648;28;20485;-74
2023/05/27 12:23:55;;;;;;;15.80;4.67;;;27.40;95.70;;;;;;5037312;28;20464;-74
2023/05/27 12:26:24;;;;;;;10.57;4.37;;;27.70;95.40;;;;;;5048030;28;20483;-74
2023/05/27 12:28:51;;;;;;;9.80;3.87;;;27.90;95.90;;;;;;5039802;28;20553;-73
2023/05/27 12:31:18;;;;;;;12.33;4.10;;;28.00;94.50;;;;;;5036216;28;20548;-74
2023/05/27 12:33:45;;;;;;;8.50;4.27;;;28.10;96.00;;;;;;5032631;28;20464;-74
2023/05/27 12:36:12;;;;;;;8.30;3.80;;;28.30;93.70;;;;;;5038892;28;20449;-74
2023/05/27 12:38:38;;;;;;;11.83;4.30;;;28.10;94.50;;;;;;5029891;28;20499;-73
2023/05/27 12:41:05;;;;;;;14.97;4.97;;;28.00;91.30;;;;;;5034713;28;20499;-74